sensor_id;sensor_type;location;lat;lon;timestamp;P1;P2;P0
50041;PMS7003;44598;51.606;5.912;2023-04-19T00:08:54;18.37;18.87;12.0
50041;PMS7003;44598;51.606;5.912;2023-04-19T00:22:13;16.93;17.99;11.56
50041;PMS7003;44598;51.606;5.912;2023-04-19T01:02:12;20.05;19.63;11.67
50041;PMS7003;44598;51.606;5.912;2023-04-19T01:15:32;18.73;18.98;11.56
50041;PMS7003;44598;51.606;5.912;2023-04-19T01:42:11;17.29;18.21;11.45
50041;PMS7003;44598;51.606;5.912;2023-04-19T01:55:31;17.17;17.99;11.13
50041;PMS7003;44598;51.606;5.912;2023-04-19T02:08:50;18.25;18.32;11.56
50041;PMS7003;44598;51.606;5.912;2023-04-19T02:22:10;17.89;18.1;10.47
50041;PMS7003;44598;51.606;5.912;2023-04-19T03:28:48;16.33;16.9;10.36
50041;PMS7003;44598;51.606;5.912;2023-04-19T03:42:08;13.57;15.27;10.04
50041;PMS7003;44598;51.606;5.912;2023-04-19T03:55:28;14.29;16.03;9.06
50041;PMS7003;44598;51.606;5.912;2023-04-19T04:08:47;13.09;15.05;8.95
50041;PMS7003;44598;51.606;5.912;2023-04-19T04:48:46;11.41;13.31;7.97
50041;PMS7003;44598;51.606;5.912;2023-04-19T05:15:25;11.05;12.22;7.31
50041;PMS7003;44598;51.606;5.912;2023-04-19T05:42:05;8.77;10.91;6.33
50041;PMS7003;44598;51.606;5.912;2023-04-19T05:55:24;8.65;10.58;6.77
50041;PMS7003;44598;51.606;5.912;2023-04-19T06:22:04;8.29;10.69;5.79
50041;PMS7003;44598;51.606;5.912;2023-04-19T06:35:23;7.93;10.36;5.68
50041;PMS7003;44598;51.606;5.912;2023-04-19T06:48:43;6.97;9.6;5.68
50041;PMS7003;44598;51.606;5.912;2023-04-19T07:02:03;8.53;9.82;5.57
50041;PMS7003;44598;51.606;5.912;2023-04-19T07:15:22;6.85;9.27;5.57
50041;PMS7003;44598;51.606;5.912;2023-04-19T07:28:42;6.37;8.95;5.57
50041;PMS7003;44598;51.606;5.912;2023-04-19T07:42:01;6.01;8.4;5.02
50041;PMS7003;44598;51.606;5.912;2023-04-19T07:55:21;6.37;7.42;4.7
50041;PMS7003;44598;51.606;5.912;2023-04-19T08:08:41;4.57;7.42;4.7
50041;PMS7003;44598;51.606;5.912;2023-04-19T08:22:00;3.6;6.44;4.15
50041;PMS7003;44598;51.606;5.912;2023-04-19T08:35:20;3.12;5.46;3.82
50041;PMS7003;44598;51.606;5.912;2023-04-19T08:48:39;2.64;5.57;3.39
50041;PMS7003;44598;51.606;5.912;2023-04-19T09:01:59;1.92;4.7;3.28
50041;PMS7003;44598;51.606;5.912;2023-04-19T09:28:38;2.64;4.91;3.17
50041;PMS7003;44598;51.606;5.912;2023-04-19T09:41:58;1.2;4.15;2.73
50041;PMS7003;44598;51.606;5.912;2023-04-19T09:55:17;0.6;3.5;2.19
50041;PMS7003;44598;51.606;5.912;2023-04-19T10:08:37;0.01;2.08;1.43
50041;PMS7003;44598;51.606;5.912;2023-04-19T10:21:57;0.01;2.3;1.43
50041;PMS7003;44598;51.606;5.912;2023-04-19T10:35:16;0.01;2.73;1.86
50041;PMS7003;44598;51.606;5.912;2023-04-19T10:48:36;0.12;3.06;1.97
50041;PMS7003;44598;51.606;5.912;2023-04-19T11:15:15;0.12;3.17;2.08
50041;PMS7003;44598;51.606;5.912;2023-04-19T11:28:35;0.48;2.73;1.75
50041;PMS7003;44598;51.606;5.912;2023-04-19T11:41:55;0.01;2.73;1.86
50041;PMS7003;44598;51.606;5.912;2023-04-19T11:55:14;0.12;3.17;1.86
50041;PMS7003;44598;51.606;5.912;2023-04-19T12:08:34;0.72;3.61;2.52
50041;PMS7003;44598;51.606;5.912;2023-04-19T12:21:53;0.48;3.39;2.41
50041;PMS7003;44598;51.606;5.912;2023-04-19T12:35:13;0.24;3.39;2.19
50041;PMS7003;44598;51.606;5.912;2023-04-19T13:28:32;0.36;3.39;2.08
50041;PMS7003;44598;51.606;5.912;2023-04-19T13:41:51;1.2;3.39;2.52
50041;PMS7003;44598;51.606;5.912;2023-04-19T13:55:11;0.6;3.82;2.41
50041;PMS7003;44598;51.606;5.912;2023-04-19T14:08:31;1.68;4.7;3.17
50041;PMS7003;44598;51.606;5.912;2023-04-19T14:21:50;2.16;5.13;3.39
50041;PMS7003;44598;51.606;5.912;2023-04-19T14:35:10;2.04;5.13;3.39
50041;PMS7003;44598;51.606;5.912;2023-04-19T14:48:30;2.64;5.57;3.17
50041;PMS7003;44598;51.606;5.912;2023-04-19T15:41:48;2.04;4.91;3.28
50041;PMS7003;44598;51.606;5.912;2023-04-19T16:08:27;1.68;4.8;2.84
50041;PMS7003;44598;51.606;5.912;2023-04-19T16:21:47;1.2;4.15;2.95
50041;PMS7003;44598;51.606;5.912;2023-04-19T16:35:07;0.72;3.82;2.41
50041;PMS7003;44598;51.606;5.912;2023-04-19T16:48:26;0.72;3.93;2.62
50041;PMS7003;44598;51.606;5.912;2023-04-19T17:15:06;0.84;3.71;2.41
50041;PMS7003;44598;51.606;5.912;2023-04-19T17:28:25;0.01;3.17;2.3
50041;PMS7003;44598;51.606;5.912;2023-04-19T17:41:45;1.08;3.17;2.19
50041;PMS7003;44598;51.606;5.912;2023-04-19T17:55:05;0.24;3.39;2.08
50041;PMS7003;44598;51.606;5.912;2023-04-19T18:08:24;0.84;3.39;2.3
50041;PMS7003;44598;51.606;5.912;2023-04-19T18:21:44;1.56;4.59;2.84
50041;PMS7003;44598;51.606;5.912;2023-04-19T18:35:04;1.56;4.37;2.62
50041;PMS7003;44598;51.606;5.912;2023-04-19T19:01:43;0.96;4.15;2.73
50041;PMS7003;44598;51.606;5.912;2023-04-19T19:28:22;0.84;3.93;2.73
50041;PMS7003;44598;51.606;5.912;2023-04-19T19:41:42;1.68;4.37;3.06
50041;PMS7003;44598;51.606;5.912;2023-04-19T19:55:01;2.4;5.24;3.39
50041;PMS7003;44598;51.606;5.912;2023-04-19T20:08:21;3.85;6.33;3.71
50041;PMS7003;44598;51.606;5.912;2023-04-19T20:48:20;3.24;5.9;3.71
50041;PMS7003;44598;51.606;5.912;2023-04-19T21:14:59;4.09;6.11;3.61
50041;PMS7003;44598;51.606;5.912;2023-04-19T21:28:19;2.52;5.35;3.61
50041;PMS7003;44598;51.606;5.912;2023-04-19T21:41:38;2.64;5.46;3.39
50041;PMS7003;44598;51.606;5.912;2023-04-19T21:54:58;3.48;6.0;3.5
50041;PMS7003;44598;51.606;5.912;2023-04-19T22:08:18;3.12;5.57;3.39
50041;PMS7003;44598;51.606;5.912;2023-04-19T22:48:16;3.0;5.68;3.39
50041;PMS7003;44598;51.606;5.912;2023-04-19T23:01:36;2.88;5.79;3.39
50041;PMS7003;44598;51.606;5.912;2023-04-19T23:14:56;2.4;5.35;3.5
50041;PMS7003;44598;51.606;5.912;2023-04-19T23:28:15;2.64;5.57;3.17
50041;PMS7003;44598;51.606;5.912;2023-04-19T23:54:54;1.68;4.8;2.95
